Portada
METAR-TAF:

METAR-TAF

Aeroports :

Aeroport Internacional de Tabarka

Tabarka, Tunísia

latitud: 36-57N, longitud: 008-45E, altitud: 20 m

Observació

L'informe es va fer fa 47 minuts, a les 10:00 UTC
Vent 5 kt del Est/Nord-Est, variant entre Nord-Est i Est
Temperatura 26°C
Humitat 51%
Pressió 1011 hPa
Visibilitat 10 km o més
Escasses núvols a una alçada de 2000 ft

METAR: DTKA 151000Z 06005KT 040V100 9999 FEW020 26/15 Q1011 NOSIG

Hora: 11:47 (10:47 UTC)

Pronòstic

L'informe es va fer fa 1 hora i 47 minuts, a les 09:00 UTC
Pronòstic vàlid del 15 a les 10 UTC al 15 a les 19 UTC
Vent 10 kt del Est
Visibilitat: 8000 m
Núvols disperses a una alçada de 2000 ft

TAF: DTKA 150900Z 1510/1519 09010KT 8000 SCT020

Observacions i pronòstics meteorològics de més de 4000 aeroports (METAR i TAF).

Les estacions disponibles són els punts grocs i vermells al mapa.

Posi el ratolí al punt desitjat per veure el nom de l'estació.

Feu clic per veure les observacions i els pronòstics meteorològics.

Per canviar el mapa: feu clic els botons verds amb una creu de color negre per apropar; al botó verd amb un guió per allunyar la imatge; o en les fletxes verdes per a mapes adjacents.


METAR-TAF: